sensor_id;sensor_type;location;lat;lon;timestamp;temperature;humidity
9371;DHT22;4725;48.384;8.984;2023-01-28T00:00:15;-1.80;99.90
9371;DHT22;4725;48.384;8.984;2023-01-28T00:02:43;-1.80;99.90
9371;DHT22;4725;48.384;8.984;2023-01-28T00:05:10;-1.90;99.90
9371;DHT22;4725;48.384;8.984;2023-01-28T00:07:37;-1.90;99.90
9371;DHT22;4725;48.384;8.984;2023-01-28T00:10:05;-1.80;99.90
9371;DHT22;4725;48.384;8.984;2023-01-28T00:12:32;-1.90;99.90
9371;DHT22;4725;48.384;8.984;2023-01-28T00:15:00;-1.90;99.90
9371;DHT22;4725;48.384;8.984;2023-01-28T00:19:55;-1.80;99.90
9371;DHT22;4725;48.384;8.984;2023-01-28T00:22:21;-1.80;99.90
9371;DHT22;4725;48.384;8.984;2023-01-28T00:24:48;-1.80;99.90
9371;DHT22;4725;48.384;8.984;2023-01-28T00:27:15;-1.70;99.90
9371;DHT22;4725;48.384;8.984;2023-01-28T00:29:42;-1.80;99.90
9371;DHT22;4725;48.384;8.984;2023-01-28T00:32:10;-1.70;99.90
9371;DHT22;4725;48.384;8.984;2023-01-28T00:34:37;-1.80;99.90
9371;DHT22;4725;48.384;8.984;2023-01-28T00:37:04;-1.80;99.90
9371;DHT22;4725;48.384;8.984;2023-01-28T00:39:31;-1.80;99.90
9371;DHT22;4725;48.384;8.984;2023-01-28T00:41:58;-1.80;99.90
9371;DHT22;4725;48.384;8.984;2023-01-28T00:44:25;-1.80;99.90
9371;DHT22;4725;48.384;8.984;2023-01-28T00:49:21;-1.70;99.90
9371;DHT22;4725;48.384;8.984;2023-01-28T00:51:48;-1.80;99.90
9371;DHT22;4725;48.384;8.984;2023-01-28T00:54:15;-1.80;99.90
9371;DHT22;4725;48.384;8.984;2023-01-28T00:56:42;-1.70;99.90
9371;DHT22;4725;48.384;8.984;2023-01-28T00:59:09;-1.70;99.90
9371;DHT22;4725;48.384;8.984;2023-01-28T01:01:36;-1.70;99.90
9371;DHT22;4725;48.384;8.984;2023-01-28T01:04:03;-1.70;99.90
9371;DHT22;4725;48.384;8.984;2023-01-28T01:06:34;-1.70;99.90
9371;DHT22;4725;48.384;8.984;2023-01-28T01:09:01;-1.70;99.90
9371;DHT22;4725;48.384;8.984;2023-01-28T01:11:28;-1.70;99.90
9371;DHT22;4725;48.384;8.984;2023-01-28T01:13:57;-1.70;99.90
9371;DHT22;4725;48.384;8.984;2023-01-28T01:16:26;-1.70;99.90
9371;DHT22;4725;48.384;8.984;2023-01-28T01:18:54;-1.70;99.90
9371;DHT22;4725;48.384;8.984;2023-01-28T01:21:23;-1.70;99.90
9371;DHT22;4725;48.384;8.984;2023-01-28T01:23:52;-1.80;99.90
9371;DHT22;4725;48.384;8.984;2023-01-28T01:26:19;-1.70;99.90
9371;DHT22;4725;48.384;8.984;2023-01-28T01:31:15;-1.80;99.90
9371;DHT22;4725;48.384;8.984;2023-01-28T01:33:44;-1.80;99.90
9371;DHT22;4725;48.384;8.984;2023-01-28T01:36:12;-1.70;99.90
9371;DHT22;4725;48.384;8.984;2023-01-28T01:38:39;-1.70;99.90
9371;DHT22;4725;48.384;8.984;2023-01-28T01:41:08;-1.80;99.90
9371;DHT22;4725;48.384;8.984;2023-01-28T01:43:47;-1.80;99.90
9371;DHT22;4725;48.384;8.984;2023-01-28T01:46:17;-1.80;99.90
9371;DHT22;4725;48.384;8.984;2023-01-28T01:48:45;-1.80;99.90
9371;DHT22;4725;48.384;8.984;2023-01-28T01:51:14;-1.70;99.90
9371;DHT22;4725;48.384;8.984;2023-01-28T01:53:46;-1.80;99.90
9371;DHT22;4725;48.384;8.984;2023-01-28T01:56:18;-1.70;99.90
9371;DHT22;4725;48.384;8.984;2023-01-28T01:58:48;-1.70;99.90
9371;DHT22;4725;48.384;8.984;2023-01-28T02:01:17;-1.70;99.90
9371;DHT22;4725;48.384;8.984;2023-01-28T02:03:52;-1.60;99.90
9371;DHT22;4725;48.384;8.984;2023-01-28T02:06:21;-1.60;99.90
9371;DHT22;4725;48.384;8.984;2023-01-28T02:08:48;-1.70;99.90
9371;DHT22;4725;48.384;8.984;2023-01-28T02:11:17;-1.70;99.90
9371;DHT22;4725;48.384;8.984;2023-01-28T02:13:48;-1.70;99.90
9371;DHT22;4725;48.384;8.984;2023-01-28T02:16:16;-1.70;99.90
9371;DHT22;4725;48.384;8.984;2023-01-28T02:21:36;-1.70;99.90
9371;DHT22;4725;48.384;8.984;2023-01-28T02:24:22;-1.70;99.90
9371;DHT22;4725;48.384;8.984;2023-01-28T02:27:03;0.90;99.90
9371;DHT22;4725;48.384;8.984;2023-01-28T02:29:43;-1.70;99.90
9371;DHT22;4725;48.384;8.984;2023-01-28T02:32:16;-1.70;99.90
9371;DHT22;4725;48.384;8.984;2023-01-28T02:34:46;-1.60;99.90
9371;DHT22;4725;48.384;8.984;2023-01-28T02:37:21;-1.70;99.90
9371;DHT22;4725;48.384;8.984;2023-01-28T02:39:53;-1.70;99.90
9371;DHT22;4725;48.384;8.984;2023-01-28T02:42:23;-1.70;99.90
9371;DHT22;4725;48.384;8.984;2023-01-28T02:44:52;-1.60;99.90
9371;DHT22;4725;48.384;8.984;2023-01-28T02:47:19;-1.70;99.90
9371;DHT22;4725;48.384;8.984;2023-01-28T02:50:06;-1.70;99.90
9371;DHT22;4725;48.384;8.984;2023-01-28T02:52:44;-1.70;99.90
9371;DHT22;4725;48.384;8.984;2023-01-28T02:55:36;-1.70;99.90
9371;DHT22;4725;48.384;8.984;2023-01-28T02:58:11;-1.70;99.90
9371;DHT22;4725;48.384;8.984;2023-01-28T03:00:45;-1.80;99.90
9371;DHT22;4725;48.384;8.984;2023-01-28T03:03:17;-1.80;99.90
9371;DHT22;4725;48.384;8.984;2023-01-28T03:05:50;-1.80;99.90
9371;DHT22;4725;48.384;8.984;2023-01-28T03:08:34;-1.70;99.90
9371;DHT22;4725;48.384;8.984;2023-01-28T03:11:20;-1.80;99.90
9371;DHT22;4725;48.384;8.984;2023-01-28T03:16:52;-1.70;99.90
9371;DHT22;4725;48.384;8.984;2023-01-28T03:19:39;-1.70;99.90
9371;DHT22;4725;48.384;8.984;2023-01-28T03:22:23;-1.70;99.90
9371;DHT22;4725;48.384;8.984;2023-01-28T03:25:10;-1.70;99.90
9371;DHT22;4725;48.384;8.984;2023-01-28T03:28:00;-1.80;99.90
9371;DHT22;4725;48.384;8.984;2023-01-28T03:30:50;-1.80;99.90
9371;DHT22;4725;48.384;8.984;2023-01-28T03:33:39;-1.80;99.90
9371;DHT22;4725;48.384;8.984;2023-01-28T03:39:09;-1.80;99.90
9371;DHT22;4725;48.384;8.984;2023-01-28T03:41:36;-1.80;99.90
9371;DHT22;4725;48.384;8.984;2023-01-28T03:44:03;-1.80;99.90
9371;DHT22;4725;48.384;8.984;2023-01-28T03:46:48;-1.90;99.90
9371;DHT22;4725;48.384;8.984;2023-01-28T03:49:17;-1.80;99.90
9371;DHT22;4725;48.384;8.984;2023-01-28T03:51:43;-1.70;99.90
9371;DHT22;4725;48.384;8.984;2023-01-28T03:54:11;-1.70;99.90
9371;DHT22;4725;48.384;8.984;2023-01-28T03:56:38;-1.70;99.90
9371;DHT22;4725;48.384;8.984;2023-01-28T03:59:05;-1.70;99.90
9371;DHT22;4725;48.384;8.984;2023-01-28T04:01:32;-1.70;99.90
9371;DHT22;4725;48.384;8.984;2023-01-28T04:03:59;-1.70;99.90
9371;DHT22;4725;48.384;8.984;2023-01-28T04:06:27;-1.70;99.90
9371;DHT22;4725;48.384;8.984;2023-01-28T04:08:54;-1.70;99.90
9371;DHT22;4725;48.384;8.984;2023-01-28T04:11:24;-1.70;99.90
9371;DHT22;4725;48.384;8.984;2023-01-28T04:13:50;-1.70;99.90
9371;DHT22;4725;48.384;8.984;2023-01-28T04:16:18;-1.70;99.90
9371;DHT22;4725;48.384;8.984;2023-01-28T04:18:45;-1.70;99.90
9371;DHT22;4725;48.384;8.984;2023-01-28T04:21:12;-1.70;99.90
9371;DHT22;4725;48.384;8.984;2023-01-28T04:23:40;-1.70;99.90
9371;DHT22;4725;48.384;8.984;2023-01-28T04:26:07;-1.80;99.90
9371;DHT22;4725;48.384;8.984;2023-01-28T04:28:34;-1.80;99.90
9371;DHT22;4725;48.384;8.984;2023-01-28T04:33:28;-3.50;99.90
9371;DHT22;4725;48.384;8.984;2023-01-28T04:35:54;-1.70;99.90
9371;DHT22;4725;48.384;8.984;2023-01-28T04:38:21;-1.70;99.90
9371;DHT22;4725;48.384;8.984;2023-01-28T04:40:50;-1.70;99.90
9371;DHT22;4725;48.384;8.984;2023-01-28T04:45:45;-1.80;99.90
9371;DHT22;4725;48.384;8.984;2023-01-28T04:48:13;-1.70;99.90
9371;DHT22;4725;48.384;8.984;2023-01-28T04:50:41;-1.70;99.90
9371;DHT22;4725;48.384;8.984;2023-01-28T04:53:08;-1.80;99.90
9371;DHT22;4725;48.384;8.984;2023-01-28T04:58:04;-1.70;99.90
9371;DHT22;4725;48.384;8.984;2023-01-28T05:00:31;-1.60;99.90
9371;DHT22;4725;48.384;8.984;2023-01-28T05:05:25;-1.70;99.90
9371;DHT22;4725;48.384;8.984;2023-01-28T05:07:53;-1.70;99.90
9371;DHT22;4725;48.384;8.984;2023-01-28T05:12:48;-1.70;99.90
9371;DHT22;4725;48.384;8.984;2023-01-28T05:15:16;-1.60;99.90
9371;DHT22;4725;48.384;8.984;2023-01-28T05:17:44;-1.70;99.90
9371;DHT22;4725;48.384;8.984;2023-01-28T05:20:12;-1.70;99.90
9371;DHT22;4725;48.384;8.984;2023-01-28T05:22:39;-1.70;99.90
9371;DHT22;4725;48.384;8.984;2023-01-28T05:25:08;-1.70;99.90
9371;DHT22;4725;48.384;8.984;2023-01-28T05:27:35;-1.80;99.90
9371;DHT22;4725;48.384;8.984;2023-01-28T05:30:02;-1.70;99.90
9371;DHT22;4725;48.384;8.984;2023-01-28T05:32:32;-1.70;99.90
9371;DHT22;4725;48.384;8.984;2023-01-28T05:34:59;-1.70;99.90
9371;DHT22;4725;48.384;8.984;2023-01-28T05:37:26;-1.70;99.90
9371;DHT22;4725;48.384;8.984;2023-01-28T05:39:53;-1.70;99.90
9371;DHT22;4725;48.384;8.984;2023-01-28T05:42:20;-1.80;99.90
9371;DHT22;4725;48.384;8.984;2023-01-28T05:44:47;-1.70;99.90
9371;DHT22;4725;48.384;8.984;2023-01-28T05:47:14;-1.70;99.90
9371;DHT22;4725;48.384;8.984;2023-01-28T05:49:42;-1.60;99.90
9371;DHT22;4725;48.384;8.984;2023-01-28T05:52:10;-1.60;99.90
9371;DHT22;4725;48.384;8.984;2023-01-28T05:54:37;-1.60;99.90
9371;DHT22;4725;48.384;8.984;2023-01-28T05:57:04;-1.60;99.90
9371;DHT22;4725;48.384;8.984;2023-01-28T06:01:58;-1.60;99.90
9371;DHT22;4725;48.384;8.984;2023-01-28T06:04:25;-1.50;99.90
9371;DHT22;4725;48.384;8.984;2023-01-28T06:06:54;-1.60;99.90
9371;DHT22;4725;48.384;8.984;2023-01-28T06:09:20;-1.60;99.90
9371;DHT22;4725;48.384;8.984;2023-01-28T06:11:47;-1.50;99.90
9371;DHT22;4725;48.384;8.984;2023-01-28T06:14:15;-1.60;99.90
9371;DHT22;4725;48.384;8.984;2023-01-28T06:19:09;-1.60;99.90
9371;DHT22;4725;48.384;8.984;2023-01-28T06:21:36;-1.70;99.90
9371;DHT22;4725;48.384;8.984;2023-01-28T06:24:05;-1.70;99.90
9371;DHT22;4725;48.384;8.984;2023-01-28T06:26:32;-1.60;99.90
9371;DHT22;4725;48.384;8.984;2023-01-28T06:31:26;-1.60;99.90
9371;DHT22;4725;48.384;8.984;2023-01-28T06:33:53;-1.60;99.90
9371;DHT22;4725;48.384;8.984;2023-01-28T06:36:20;-1.50;99.90
9371;DHT22;4725;48.384;8.984;2023-01-28T06:38:47;-1.60;99.90
9371;DHT22;4725;48.384;8.984;2023-01-28T06:41:15;-1.50;99.90
9371;DHT22;4725;48.384;8.984;2023-01-28T06:43:42;-1.50;99.90
9371;DHT22;4725;48.384;8.984;2023-01-28T06:46:09;-1.50;99.90
9371;DHT22;4725;48.384;8.984;2023-01-28T06:48:36;-1.50;99.90
9371;DHT22;4725;48.384;8.984;2023-01-28T06:51:03;-1.50;99.90
9371;DHT22;4725;48.384;8.984;2023-01-28T06:53:30;-1.60;99.90
9371;DHT22;4725;48.384;8.984;2023-01-28T06:58:26;-1.40;99.90
9371;DHT22;4725;48.384;8.984;2023-01-28T07:00:54;-1.50;99.90
9371;DHT22;4725;48.384;8.984;2023-01-28T07:03:21;-1.50;99.90
9371;DHT22;4725;48.384;8.984;2023-01-28T07:05:48;-1.60;99.90
9371;DHT22;4725;48.384;8.984;2023-01-28T07:08:15;-1.60;99.90
9371;DHT22;4725;48.384;8.984;2023-01-28T07:10:42;-1.50;99.90
9371;DHT22;4725;48.384;8.984;2023-01-28T07:18:05;-1.50;99.90
9371;DHT22;4725;48.384;8.984;2023-01-28T07:20:32;-1.50;99.90
9371;DHT22;4725;48.384;8.984;2023-01-28T07:22:59;-1.50;99.90
9371;DHT22;4725;48.384;8.984;2023-01-28T07:25:26;-1.50;99.90
9371;DHT22;4725;48.384;8.984;2023-01-28T07:27:53;-1.60;99.90
9371;DHT22;4725;48.384;8.984;2023-01-28T07:30:20;-1.50;99.90
9371;DHT22;4725;48.384;8.984;2023-01-28T07:32:53;-1.50;99.90
9371;DHT22;4725;48.384;8.984;2023-01-28T07:35:20;-1.50;99.90
9371;DHT22;4725;48.384;8.984;2023-01-28T07:37:51;-1.40;99.90
9371;DHT22;4725;48.384;8.984;2023-01-28T07:40:19;-1.40;99.90
9371;DHT22;4725;48.384;8.984;2023-01-28T07:42:46;-1.40;99.90
9371;DHT22;4725;48.384;8.984;2023-01-28T07:45:14;-1.40;99.90
9371;DHT22;4725;48.384;8.984;2023-01-28T07:47:41;-1.20;99.90
9371;DHT22;4725;48.384;8.984;2023-01-28T07:50:10;-1.30;99.90
9371;DHT22;4725;48.384;8.984;2023-01-28T07:52:37;-1.30;99.90
9371;DHT22;4725;48.384;8.984;2023-01-28T07:55:09;-1.20;99.90
9371;DHT22;4725;48.384;8.984;2023-01-28T07:57:47;-1.10;99.90
9371;DHT22;4725;48.384;8.984;2023-01-28T08:00:15;-1.10;99.90
9371;DHT22;4725;48.384;8.984;2023-01-28T08:07:41;-1.00;99.90
9371;DHT22;4725;48.384;8.984;2023-01-28T08:10:09;-1.00;99.90
9371;DHT22;4725;48.384;8.984;2023-01-28T08:12:36;-1.00;99.90
9371;DHT22;4725;48.384;8.984;2023-01-28T08:15:04;-1.00;99.90
9371;DHT22;4725;48.384;8.984;2023-01-28T08:17:32;-1.10;99.90
9371;DHT22;4725;48.384;8.984;2023-01-28T08:22:27;-1.00;99.90
9371;DHT22;4725;48.384;8.984;2023-01-28T08:24:54;-1.00;99.90
9371;DHT22;4725;48.384;8.984;2023-01-28T08:27:21;-1.00;99.90
9371;DHT22;4725;48.384;8.984;2023-01-28T08:29:48;-0.80;99.90
9371;DHT22;4725;48.384;8.984;2023-01-28T08:32:15;-0.80;99.90
9371;DHT22;4725;48.384;8.984;2023-01-28T08:34:42;-0.80;99.90
9371;DHT22;4725;48.384;8.984;2023-01-28T08:37:09;-0.70;99.90
9371;DHT22;4725;48.384;8.984;2023-01-28T08:39:37;-0.70;99.90
9371;DHT22;4725;48.384;8.984;2023-01-28T08:42:04;-0.70;99.90
9371;DHT22;4725;48.384;8.984;2023-01-28T08:44:31;-0.70;99.90
9371;DHT22;4725;48.384;8.984;2023-01-28T08:46:58;-0.80;99.90
9371;DHT22;4725;48.384;8.984;2023-01-28T08:49:25;-0.80;99.90
9371;DHT22;4725;48.384;8.984;2023-01-28T08:51:52;-0.80;99.90
9371;DHT22;4725;48.384;8.984;2023-01-28T08:54:20;-0.80;99.90
9371;DHT22;4725;48.384;8.984;2023-01-28T08:56:48;-0.80;99.90
9371;DHT22;4725;48.384;8.984;2023-01-28T08:59:16;-0.60;99.90
9371;DHT22;4725;48.384;8.984;2023-01-28T09:01:43;-0.70;99.90
9371;DHT22;4725;48.384;8.984;2023-01-28T09:04:10;-0.70;99.90
9371;DHT22;4725;48.384;8.984;2023-01-28T09:06:37;-0.70;99.90
9371;DHT22;4725;48.384;8.984;2023-01-28T09:09:04;-0.60;99.90
9371;DHT22;4725;48.384;8.984;2023-01-28T09:11:31;-0.40;99.90
9371;DHT22;4725;48.384;8.984;2023-01-28T09:13:59;-0.30;99.90
9371;DHT22;4725;48.384;8.984;2023-01-28T09:16:26;-0.20;99.90
9371;DHT22;4725;48.384;8.984;2023-01-28T09:18:53;-0.10;99.90
9371;DHT22;4725;48.384;8.984;2023-01-28T09:21:20;-0.10;99.90
9371;DHT22;4725;48.384;8.984;2023-01-28T09:23:47;0.00;99.90
9371;DHT22;4725;48.384;8.984;2023-01-28T09:26:14;0.00;99.90
9371;DHT22;4725;48.384;8.984;2023-01-28T09:28:41;0.00;99.90
9371;DHT22;4725;48.384;8.984;2023-01-28T09:31:10;0.20;99.90
9371;DHT22;4725;48.384;8.984;2023-01-28T09:33:39;0.30;99.90
9371;DHT22;4725;48.384;8.984;2023-01-28T09:36:07;0.20;99.90
9371;DHT22;4725;48.384;8.984;2023-01-28T09:38:35;0.20;99.90
9371;DHT22;4725;48.384;8.984;2023-01-28T09:41:11;0.10;99.90
9371;DHT22;4725;48.384;8.984;2023-01-28T09:43:53;0.10;99.90
9371;DHT22;4725;48.384;8.984;2023-01-28T09:46:31;0.00;99.90
9371;DHT22;4725;48.384;8.984;2023-01-28T09:48:59;0.10;99.90
9371;DHT22;4725;48.384;8.984;2023-01-28T09:51:32;0.10;99.90
9371;DHT22;4725;48.384;8.984;2023-01-28T09:54:03;0.10;99.90
9371;DHT22;4725;48.384;8.984;2023-01-28T09:56:38;0.10;99.90
9371;DHT22;4725;48.384;8.984;2023-01-28T09:59:16;0.00;99.90
9371;DHT22;4725;48.384;8.984;2023-01-28T10:01:49;0.10;99.90
9371;DHT22;4725;48.384;8.984;2023-01-28T10:04:31;0.20;99.90
9371;DHT22;4725;48.384;8.984;2023-01-28T10:07:14;0.20;99.90
9371;DHT22;4725;48.384;8.984;2023-01-28T10:09:47;0.30;99.90
9371;DHT22;4725;48.384;8.984;2023-01-28T10:12:37;0.30;99.90
9371;DHT22;4725;48.384;8.984;2023-01-28T10:15:19;0.30;99.90
9371;DHT22;4725;48.384;8.984;2023-01-28T10:17:52;0.40;99.90
9371;DHT22;4725;48.384;8.984;2023-01-28T10:20:24;0.40;99.90
9371;DHT22;4725;48.384;8.984;2023-01-28T10:22:59;0.50;99.90
9371;DHT22;4725;48.384;8.984;2023-01-28T10:25:30;0.50;99.90
9371;DHT22;4725;48.384;8.984;2023-01-28T10:30:26;0.50;99.90
9371;DHT22;4725;48.384;8.984;2023-01-28T10:32:58;0.50;99.90
9371;DHT22;4725;48.384;8.984;2023-01-28T10:35:28;0.80;99.90
9371;DHT22;4725;48.384;8.984;2023-01-28T10:38:01;0.90;99.90
9371;DHT22;4725;48.384;8.984;2023-01-28T10:42:58;1.00;99.90
9371;DHT22;4725;48.384;8.984;2023-01-28T10:45:27;1.20;99.90
9371;DHT22;4725;48.384;8.984;2023-01-28T10:48:01;1.20;99.90
9371;DHT22;4725;48.384;8.984;2023-01-28T10:50:30;1.10;99.90
9371;DHT22;4725;48.384;8.984;2023-01-28T10:52:58;1.10;99.90
9371;DHT22;4725;48.384;8.984;2023-01-28T10:55:27;0.90;99.90
9371;DHT22;4725;48.384;8.984;2023-01-28T10:57:55;0.90;99.90
9371;DHT22;4725;48.384;8.984;2023-01-28T11:00:26;1.00;99.90
9371;DHT22;4725;48.384;8.984;2023-01-28T11:02:57;1.00;99.90
9371;DHT22;4725;48.384;8.984;2023-01-28T11:05:26;0.90;99.90
9371;DHT22;4725;48.384;8.984;2023-01-28T11:08:05;0.90;99.90
9371;DHT22;4725;48.384;8.984;2023-01-28T11:10:33;0.70;99.90
9371;DHT22;4725;48.384;8.984;2023-01-28T11:13:03;0.90;99.90
9371;DHT22;4725;48.384;8.984;2023-01-28T11:18:01;1.00;99.90
9371;DHT22;4725;48.384;8.984;2023-01-28T11:20:32;1.00;99.90
9371;DHT22;4725;48.384;8.984;2023-01-28T11:23:01;1.00;99.90
9371;DHT22;4725;48.384;8.984;2023-01-28T11:25:30;1.00;99.90
9371;DHT22;4725;48.384;8.984;2023-01-28T11:27:59;1.00;99.90
9371;DHT22;4725;48.384;8.984;2023-01-28T11:30:29;1.00;99.90
9371;DHT22;4725;48.384;8.984;2023-01-28T11:33:01;1.00;99.90
9371;DHT22;4725;48.384;8.984;2023-01-28T11:35:30;1.20;99.90
9371;DHT22;4725;48.384;8.984;2023-01-28T11:37:57;1.50;99.90
9371;DHT22;4725;48.384;8.984;2023-01-28T11:40:25;1.70;99.90
9371;DHT22;4725;48.384;8.984;2023-01-28T11:42:52;1.70;99.90
9371;DHT22;4725;48.384;8.984;2023-01-28T11:45:26;1.70;99.90
9371;DHT22;4725;48.384;8.984;2023-01-28T11:48:14;1.70;99.90
9371;DHT22;4725;48.384;8.984;2023-01-28T11:50:51;1.80;99.90
9371;DHT22;4725;48.384;8.984;2023-01-28T11:53:41;1.70;99.90
9371;DHT22;4725;48.384;8.984;2023-01-28T11:56:20;1.80;99.90
9371;DHT22;4725;48.384;8.984;2023-01-28T11:58:57;2.00;99.90
9371;DHT22;4725;48.384;8.984;2023-01-28T12:01:38;2.20;99.90
9371;DHT22;4725;48.384;8.984;2023-01-28T12:04:18;2.50;99.90
9371;DHT22;4725;48.384;8.984;2023-01-28T12:06:56;2.50;99.90
9371;DHT22;4725;48.384;8.984;2023-01-28T12:09:32;2.60;99.90
9371;DHT22;4725;48.384;8.984;2023-01-28T12:12:10;2.70;99.90
9371;DHT22;4725;48.384;8.984;2023-01-28T12:15:15;2.70;99.90
9371;DHT22;4725;48.384;8.984;2023-01-28T12:17:54;2.30;99.90
9371;DHT22;4725;48.384;8.984;2023-01-28T12:20:28;2.20;99.90
9371;DHT22;4725;48.384;8.984;2023-01-28T12:23:05;2.10;99.90
9371;DHT22;4725;48.384;8.984;2023-01-28T12:26:02;2.10;99.90
9371;DHT22;4725;48.384;8.984;2023-01-28T12:28:42;1.90;99.90
9371;DHT22;4725;48.384;8.984;2023-01-28T12:31:28;1.70;99.90
9371;DHT22;4725;48.384;8.984;2023-01-28T12:34:13;1.60;99.90
9371;DHT22;4725;48.384;8.984;2023-01-28T12:36:52;1.50;99.90
9371;DHT22;4725;48.384;8.984;2023-01-28T12:39:30;1.50;99.90
9371;DHT22;4725;48.384;8.984;2023-01-28T12:42:07;1.60;99.90
9371;DHT22;4725;48.384;8.984;2023-01-28T12:44:41;1.40;99.90
9371;DHT22;4725;48.384;8.984;2023-01-28T12:47:11;1.40;99.90
9371;DHT22;4725;48.384;8.984;2023-01-28T12:49:43;1.60;99.90
9371;DHT22;4725;48.384;8.984;2023-01-28T12:52:16;1.50;99.90
9371;DHT22;4725;48.384;8.984;2023-01-28T12:54:53;1.40;99.90
9371;DHT22;4725;48.384;8.984;2023-01-28T12:57:23;1.40;99.90
9371;DHT22;4725;48.384;8.984;2023-01-28T12:59:56;1.30;99.90
9371;DHT22;4725;48.384;8.984;2023-01-28T13:02:26;1.10;99.90
9371;DHT22;4725;48.384;8.984;2023-01-28T13:05:01;1.00;99.90
9371;DHT22;4725;48.384;8.984;2023-01-28T13:07:34;0.90;99.90
9371;DHT22;4725;48.384;8.984;2023-01-28T13:10:09;0.70;99.90
9371;DHT22;4725;48.384;8.984;2023-01-28T13:12:39;0.80;99.90
9371;DHT22;4725;48.384;8.984;2023-01-28T13:15:11;0.70;99.90
9371;DHT22;4725;48.384;8.984;2023-01-28T13:17:39;0.70;99.90
9371;DHT22;4725;48.384;8.984;2023-01-28T13:20:34;0.70;99.90
9371;DHT22;4725;48.384;8.984;2023-01-28T13:23:05;0.70;99.90
9371;DHT22;4725;48.384;8.984;2023-01-28T13:25:33;0.70;99.90
9371;DHT22;4725;48.384;8.984;2023-01-28T13:28:02;0.60;99.90
9371;DHT22;4725;48.384;8.984;2023-01-28T13:30:30;0.70;99.90
9371;DHT22;4725;48.384;8.984;2023-01-28T13:33:00;0.70;99.90
9371;DHT22;4725;48.384;8.984;2023-01-28T13:35:33;0.70;99.90
9371;DHT22;4725;48.384;8.984;2023-01-28T13:38:17;0.80;99.90
9371;DHT22;4725;48.384;8.984;2023-01-28T13:40:53;0.90;99.90
9371;DHT22;4725;48.384;8.984;2023-01-28T13:43:35;0.90;99.90
9371;DHT22;4725;48.384;8.984;2023-01-28T13:46:05;1.00;99.90
9371;DHT22;4725;48.384;8.984;2023-01-28T13:48:39;1.30;99.90
9371;DHT22;4725;48.384;8.984;2023-01-28T13:51:15;1.90;99.90
9371;DHT22;4725;48.384;8.984;2023-01-28T13:53:50;2.00;99.90
9371;DHT22;4725;48.384;8.984;2023-01-28T13:56:21;2.20;99.90
9371;DHT22;4725;48.384;8.984;2023-01-28T13:59:24;2.20;99.90
9371;DHT22;4725;48.384;8.984;2023-01-28T14:02:22;2.10;99.90
9371;DHT22;4725;48.384;8.984;2023-01-28T14:07:54;1.80;99.90
9371;DHT22;4725;48.384;8.984;2023-01-28T14:10:33;1.50;99.90
9371;DHT22;4725;48.384;8.984;2023-01-28T14:13:22;1.50;99.90
9371;DHT22;4725;48.384;8.984;2023-01-28T14:16:03;1.30;99.90
9371;DHT22;4725;48.384;8.984;2023-01-28T14:18:34;1.30;99.90
9371;DHT22;4725;48.384;8.984;2023-01-28T14:21:07;1.10;99.90
9371;DHT22;4725;48.384;8.984;2023-01-28T14:23:36;1.10;99.90
9371;DHT22;4725;48.384;8.984;2023-01-28T14:26:15;1.00;99.90
9371;DHT22;4725;48.384;8.984;2023-01-28T14:28:49;1.10;99.90
9371;DHT22;4725;48.384;8.984;2023-01-28T14:31:26;1.00;99.90
9371;DHT22;4725;48.384;8.984;2023-01-28T14:33:54;1.00;99.90
9371;DHT22;4725;48.384;8.984;2023-01-28T14:36:22;0.80;99.90
9371;DHT22;4725;48.384;8.984;2023-01-28T14:38:49;0.90;99.90
9371;DHT22;4725;48.384;8.984;2023-01-28T14:41:22;0.60;99.90
9371;DHT22;4725;48.384;8.984;2023-01-28T14:43:51;0.60;99.90
9371;DHT22;4725;48.384;8.984;2023-01-28T14:46:29;0.60;99.90
9371;DHT22;4725;48.384;8.984;2023-01-28T14:49:11;0.50;99.90
9371;DHT22;4725;48.384;8.984;2023-01-28T14:54:50;0.40;99.90
9371;DHT22;4725;48.384;8.984;2023-01-28T14:57:39;0.50;99.90
9371;DHT22;4725;48.384;8.984;2023-01-28T15:00:18;0.40;99.90
9371;DHT22;4725;48.384;8.984;2023-01-28T15:05:16;0.40;99.90
9371;DHT22;4725;48.384;8.984;2023-01-28T15:07:43;0.40;99.90
9371;DHT22;4725;48.384;8.984;2023-01-28T15:10:15;0.50;99.90
9371;DHT22;4725;48.384;8.984;2023-01-28T15:12:47;0.50;99.90
9371;DHT22;4725;48.384;8.984;2023-01-28T15:15:18;0.50;99.90
9371;DHT22;4725;48.384;8.984;2023-01-28T15:17:47;0.40;99.90
9371;DHT22;4725;48.384;8.984;2023-01-28T15:20:18;0.30;99.90
9371;DHT22;4725;48.384;8.984;2023-01-28T15:22:45;0.30;99.90
9371;DHT22;4725;48.384;8.984;2023-01-28T15:25:16;0.20;99.90
9371;DHT22;4725;48.384;8.984;2023-01-28T15:27:44;0.20;99.90
9371;DHT22;4725;48.384;8.984;2023-01-28T15:30:20;0.20;99.90
9371;DHT22;4725;48.384;8.984;2023-01-28T15:33:00;0.20;99.90
9371;DHT22;4725;48.384;8.984;2023-01-28T15:35:27;0.20;99.90
9371;DHT22;4725;48.384;8.984;2023-01-28T15:37:54;0.20;99.90
9371;DHT22;4725;48.384;8.984;2023-01-28T15:40:22;0.20;99.90
9371;DHT22;4725;48.384;8.984;2023-01-28T15:42:53;0.20;99.90
9371;DHT22;4725;48.384;8.984;2023-01-28T15:45:23;0.10;99.90
9371;DHT22;4725;48.384;8.984;2023-01-28T15:48:00;0.10;99.90
9371;DHT22;4725;48.384;8.984;2023-01-28T15:50:28;0.10;99.90
9371;DHT22;4725;48.384;8.984;2023-01-28T15:52:55;0.10;99.90
9371;DHT22;4725;48.384;8.984;2023-01-28T15:55:36;0.10;99.90
9371;DHT22;4725;48.384;8.984;2023-01-28T15:58:19;0.10;99.90
9371;DHT22;4725;48.384;8.984;2023-01-28T16:00:47;0.00;99.90
9371;DHT22;4725;48.384;8.984;2023-01-28T16:03:20;0.00;99.90
9371;DHT22;4725;48.384;8.984;2023-01-28T16:05:57;0.00;99.90
9371;DHT22;4725;48.384;8.984;2023-01-28T16:08:28;0.00;99.90
9371;DHT22;4725;48.384;8.984;2023-01-28T16:10:59;0.10;99.90
9371;DHT22;4725;48.384;8.984;2023-01-28T16:13:31;0.00;99.90
9371;DHT22;4725;48.384;8.984;2023-01-28T16:16:00;0.00;99.90
9371;DHT22;4725;48.384;8.984;2023-01-28T16:18:38;0.10;99.90
9371;DHT22;4725;48.384;8.984;2023-01-28T16:21:07;0.00;99.90
9371;DHT22;4725;48.384;8.984;2023-01-28T16:23:37;0.00;99.90
9371;DHT22;4725;48.384;8.984;2023-01-28T16:26:17;-0.10;99.90
9371;DHT22;4725;48.384;8.984;2023-01-28T16:31:15;-0.10;99.90
9371;DHT22;4725;48.384;8.984;2023-01-28T16:33:42;-0.10;99.90
9371;DHT22;4725;48.384;8.984;2023-01-28T16:36:10;-0.20;99.90
9371;DHT22;4725;48.384;8.984;2023-01-28T16:38:38;-0.10;99.90
9371;DHT22;4725;48.384;8.984;2023-01-28T16:41:11;-0.20;99.90
9371;DHT22;4725;48.384;8.984;2023-01-28T16:43:39;-0.20;99.90
9371;DHT22;4725;48.384;8.984;2023-01-28T16:46:10;-0.20;99.90
9371;DHT22;4725;48.384;8.984;2023-01-28T16:48:37;-0.10;99.90
9371;DHT22;4725;48.384;8.984;2023-01-28T16:51:04;-0.20;99.90
9371;DHT22;4725;48.384;8.984;2023-01-28T16:53:32;-0.20;99.90
9371;DHT22;4725;48.384;8.984;2023-01-28T16:56:00;-0.20;99.90
9371;DHT22;4725;48.384;8.984;2023-01-28T16:58:27;-0.20;99.90
9371;DHT22;4725;48.384;8.984;2023-01-28T17:00:54;-0.20;99.90
9371;DHT22;4725;48.384;8.984;2023-01-28T17:05:50;-0.20;99.90
9371;DHT22;4725;48.384;8.984;2023-01-28T17:08:16;-0.20;99.90
9371;DHT22;4725;48.384;8.984;2023-01-28T17:10:43;-0.20;99.90
9371;DHT22;4725;48.384;8.984;2023-01-28T17:13:11;-0.30;99.90
9371;DHT22;4725;48.384;8.984;2023-01-28T17:18:08;-0.20;99.90
9371;DHT22;4725;48.384;8.984;2023-01-28T17:20:37;-0.20;99.90
9371;DHT22;4725;48.384;8.984;2023-01-28T17:23:05;-0.20;99.90
9371;DHT22;4725;48.384;8.984;2023-01-28T17:25:36;-0.10;99.90
9371;DHT22;4725;48.384;8.984;2023-01-28T17:28:04;-0.10;99.90
9371;DHT22;4725;48.384;8.984;2023-01-28T17:30:31;-0.30;99.90
9371;DHT22;4725;48.384;8.984;2023-01-28T17:32:58;-0.20;99.90
9371;DHT22;4725;48.384;8.984;2023-01-28T17:35:25;-0.20;99.90
9371;DHT22;4725;48.384;8.984;2023-01-28T17:37:54;-0.30;99.90
9371;DHT22;4725;48.384;8.984;2023-01-28T17:40:21;-0.30;99.90
9371;DHT22;4725;48.384;8.984;2023-01-28T17:42:49;-0.30;99.90
9371;DHT22;4725;48.384;8.984;2023-01-28T17:45:16;-0.40;99.90